sensor_id;sensor_type;location;lat;lon;timestamp;P1;durP1;ratioP1;P2;durP2;ratioP2
52047;SDS011;46904;49.438;8.752;2023-02-28T00:01:30;2.53;;;2.10;;
52047;SDS011;46904;49.438;8.752;2023-02-28T00:04:20;3.88;;;2.33;;
52047;SDS011;46904;49.438;8.752;2023-02-28T00:07:11;2.97;;;2.10;;
52047;SDS011;46904;49.438;8.752;2023-02-28T00:10:03;2.35;;;1.92;;
52047;SDS011;46904;49.438;8.752;2023-02-28T00:12:54;2.50;;;1.90;;
52047;SDS011;46904;49.438;8.752;2023-02-28T00:15:44;2.15;;;1.80;;
52047;SDS011;46904;49.438;8.752;2023-02-28T00:18:34;2.50;;;1.98;;
52047;SDS011;46904;49.438;8.752;2023-02-28T00:21:25;2.63;;;1.95;;
52047;SDS011;46904;49.438;8.752;2023-02-28T00:24:16;2.72;;;1.90;;
52047;SDS011;46904;49.438;8.752;2023-02-28T00:27:06;2.83;;;2.30;;
52047;SDS011;46904;49.438;8.752;2023-02-28T00:29:56;2.80;;;1.92;;
52047;SDS011;46904;49.438;8.752;2023-02-28T00:32:48;2.42;;;1.67;;
52047;SDS011;46904;49.438;8.752;2023-02-28T00:35:38;2.50;;;1.67;;
52047;SDS011;46904;49.438;8.752;2023-02-28T00:38:28;2.50;;;1.80;;
52047;SDS011;46904;49.438;8.752;2023-02-28T00:41:18;2.85;;;2.15;;
52047;SDS011;46904;49.438;8.752;2023-02-28T00:44:08;1.88;;;1.70;;
52047;SDS011;46904;49.438;8.752;2023-02-28T00:46:59;3.33;;;1.60;;
52047;SDS011;46904;49.438;8.752;2023-02-28T00:49:50;2.28;;;1.80;;
52047;SDS011;46904;49.438;8.752;2023-02-28T00:52:40;1.75;;;1.63;;
52047;SDS011;46904;49.438;8.752;2023-02-28T00:55:30;2.03;;;1.60;;
52047;SDS011;46904;49.438;8.752;2023-02-28T00:58:20;2.70;;;1.77;;
52047;SDS011;46904;49.438;8.752;2023-02-28T01:01:10;2.10;;;1.50;;
52047;SDS011;46904;49.438;8.752;2023-02-28T01:04:01;2.05;;;1.90;;
52047;SDS011;46904;49.438;8.752;2023-02-28T01:06:51;3.25;;;2.38;;
52047;SDS011;46904;49.438;8.752;2023-02-28T01:09:42;2.03;;;1.67;;
52047;SDS011;46904;49.438;8.752;2023-02-28T01:12:32;3.72;;;2.00;;
52047;SDS011;46904;49.438;8.752;2023-02-28T01:15:22;2.55;;;2.00;;
52047;SDS011;46904;49.438;8.752;2023-02-28T01:18:12;2.05;;;1.85;;
52047;SDS011;46904;49.438;8.752;2023-02-28T01:21:03;3.05;;;2.35;;
52047;SDS011;46904;49.438;8.752;2023-02-28T01:23:55;2.00;;;1.67;;
52047;SDS011;46904;49.438;8.752;2023-02-28T01:26:46;2.55;;;1.73;;
52047;SDS011;46904;49.438;8.752;2023-02-28T01:29:36;1.83;;;1.73;;
52047;SDS011;46904;49.438;8.752;2023-02-28T01:32:27;2.10;;;1.90;;
52047;SDS011;46904;49.438;8.752;2023-02-28T01:35:17;2.15;;;1.90;;
52047;SDS011;46904;49.438;8.752;2023-02-28T01:38:07;2.83;;;1.92;;
52047;SDS011;46904;49.438;8.752;2023-02-28T01:40:57;2.17;;;1.98;;
52047;SDS011;46904;49.438;8.752;2023-02-28T01:46:38;2.13;;;1.88;;
52047;SDS011;46904;49.438;8.752;2023-02-28T01:49:28;2.17;;;1.80;;
52047;SDS011;46904;49.438;8.752;2023-02-28T01:52:19;2.95;;;2.15;;
52047;SDS011;46904;49.438;8.752;2023-02-28T01:55:10;2.90;;;2.28;;
52047;SDS011;46904;49.438;8.752;2023-02-28T01:58:02;2.60;;;1.90;;
52047;SDS011;46904;49.438;8.752;2023-02-28T02:00:53;3.55;;;2.00;;
52047;SDS011;46904;49.438;8.752;2023-02-28T02:03:44;2.38;;;1.80;;
52047;SDS011;46904;49.438;8.752;2023-02-28T02:06:37;3.08;;;2.10;;
52047;SDS011;46904;49.438;8.752;2023-02-28T02:09:28;2.88;;;2.13;;
52047;SDS011;46904;49.438;8.752;2023-02-28T02:12:28;2.08;;;1.90;;
52047;SDS011;46904;49.438;8.752;2023-02-28T02:42:00;2.60;;;2.10;;
52047;SDS011;46904;49.438;8.752;2023-02-28T02:45:09;3.08;;;2.35;;
52047;SDS011;46904;49.438;8.752;2023-02-28T02:47:59;2.55;;;2.05;;
52047;SDS011;46904;49.438;8.752;2023-02-28T02:50:54;3.90;;;2.58;;
52047;SDS011;46904;49.438;8.752;2023-02-28T02:53:52;3.78;;;2.72;;
52047;SDS011;46904;49.438;8.752;2023-02-28T02:56:45;2.90;;;2.25;;
52047;SDS011;46904;49.438;8.752;2023-02-28T02:59:37;2.97;;;2.55;;
52047;SDS011;46904;49.438;8.752;2023-02-28T03:02:28;3.78;;;3.13;;
52047;SDS011;46904;49.438;8.752;2023-02-28T03:05:26;2.97;;;2.45;;
52047;SDS011;46904;49.438;8.752;2023-02-28T03:08:17;3.40;;;2.50;;
52047;SDS011;46904;49.438;8.752;2023-02-28T03:11:11;3.47;;;2.55;;
52047;SDS011;46904;49.438;8.752;2023-02-28T03:25:33;4.15;;;2.67;;
52047;SDS011;46904;49.438;8.752;2023-02-28T03:28:36;3.03;;;2.78;;
52047;SDS011;46904;49.438;8.752;2023-02-28T03:31:37;4.05;;;2.58;;
52047;SDS011;46904;49.438;8.752;2023-02-28T03:34:29;3.13;;;2.80;;
52047;SDS011;46904;49.438;8.752;2023-02-28T03:37:22;4.03;;;2.78;;
52047;SDS011;46904;49.438;8.752;2023-02-28T03:40:15;3.35;;;2.50;;
52047;SDS011;46904;49.438;8.752;2023-02-28T03:43:09;3.25;;;2.83;;
52047;SDS011;46904;49.438;8.752;2023-02-28T03:46:03;3.10;;;2.80;;
52047;SDS011;46904;49.438;8.752;2023-02-28T03:51:54;4.35;;;2.53;;
52047;SDS011;46904;49.438;8.752;2023-02-28T03:54:48;3.45;;;2.65;;
52047;SDS011;46904;49.438;8.752;2023-02-28T03:57:54;3.67;;;2.83;;
52047;SDS011;46904;49.438;8.752;2023-02-28T04:00:47;4.63;;;2.63;;
52047;SDS011;46904;49.438;8.752;2023-02-28T04:03:39;3.00;;;2.70;;
52047;SDS011;46904;49.438;8.752;2023-02-28T07:12:50;6.45;;;3.80;;
52047;SDS011;46904;49.438;8.752;2023-02-28T07:15:52;4.15;;;3.70;;
52047;SDS011;46904;49.438;8.752;2023-02-28T07:18:48;4.35;;;3.30;;
52047;SDS011;46904;49.438;8.752;2023-02-28T07:21:53;5.72;;;4.05;;
52047;SDS011;46904;49.438;8.752;2023-02-28T07:34:43;3.97;;;3.42;;
52047;SDS011;46904;49.438;8.752;2023-02-28T07:44:14;4.00;;;3.33;;
52047;SDS011;46904;49.438;8.752;2023-02-28T07:47:27;4.72;;;3.92;;
52047;SDS011;46904;49.438;8.752;2023-02-28T07:53:38;5.38;;;3.72;;
52047;SDS011;46904;49.438;8.752;2023-02-28T08:00:00;5.63;;;4.10;;
52047;SDS011;46904;49.438;8.752;2023-02-28T08:12:25;4.93;;;3.75;;
52047;SDS011;46904;49.438;8.752;2023-02-28T08:15:16;4.30;;;3.88;;
52047;SDS011;46904;49.438;8.752;2023-02-28T08:18:20;4.85;;;3.70;;
52047;SDS011;46904;49.438;8.752;2023-02-28T08:21:16;5.25;;;3.63;;
52047;SDS011;46904;49.438;8.752;2023-02-28T08:24:21;5.05;;;4.00;;
52047;SDS011;46904;49.438;8.752;2023-02-28T08:44:38;6.47;;;3.80;;
52047;SDS011;46904;49.438;8.752;2023-02-28T08:58:57;4.53;;;3.58;;
52047;SDS011;46904;49.438;8.752;2023-02-28T09:21:22;5.07;;;4.10;;
52047;SDS011;46904;49.438;8.752;2023-02-28T09:24:17;5.22;;;4.25;;
52047;SDS011;46904;49.438;8.752;2023-02-28T09:27:15;6.45;;;3.60;;
52047;SDS011;46904;49.438;8.752;2023-02-28T09:30:11;4.68;;;3.83;;
52047;SDS011;46904;49.438;8.752;2023-02-28T09:33:04;4.65;;;3.75;;
52047;SDS011;46904;49.438;8.752;2023-02-28T09:35:58;4.63;;;4.05;;
52047;SDS011;46904;49.438;8.752;2023-02-28T09:38:49;4.88;;;3.75;;
52047;SDS011;46904;49.438;8.752;2023-02-28T09:41:41;4.75;;;4.00;;
52047;SDS011;46904;49.438;8.752;2023-02-28T09:44:39;5.03;;;4.05;;
52047;SDS011;46904;49.438;8.752;2023-02-28T09:47:49;4.78;;;4.20;;
52047;SDS011;46904;49.438;8.752;2023-02-28T09:50:45;5.32;;;4.00;;
52047;SDS011;46904;49.438;8.752;2023-02-28T09:53:37;5.05;;;4.15;;
52047;SDS011;46904;49.438;8.752;2023-02-28T09:56:36;6.13;;;4.20;;
52047;SDS011;46904;49.438;8.752;2023-02-28T10:05:38;5.45;;;4.03;;
52047;SDS011;46904;49.438;8.752;2023-02-28T10:08:41;4.80;;;4.05;;
52047;SDS011;46904;49.438;8.752;2023-02-28T10:11:36;7.32;;;4.28;;
52047;SDS011;46904;49.438;8.752;2023-02-28T10:14:32;5.30;;;4.20;;
52047;SDS011;46904;49.438;8.752;2023-02-28T10:17:26;6.13;;;4.07;;
52047;SDS011;46904;49.438;8.752;2023-02-28T10:20:23;7.65;;;4.80;;
52047;SDS011;46904;49.438;8.752;2023-02-28T10:26:57;6.70;;;4.47;;
52047;SDS011;46904;49.438;8.752;2023-02-28T10:35:36;5.88;;;3.88;;
52047;SDS011;46904;49.438;8.752;2023-02-28T10:49:56;4.75;;;4.07;;
52047;SDS011;46904;49.438;8.752;2023-02-28T10:52:49;5.70;;;4.05;;
52047;SDS011;46904;49.438;8.752;2023-02-28T10:55:54;5.22;;;4.15;;
52047;SDS011;46904;49.438;8.752;2023-02-28T10:58:47;5.00;;;4.32;;
52047;SDS011;46904;49.438;8.752;2023-02-28T11:01:39;5.63;;;4.57;;
52047;SDS011;46904;49.438;8.752;2023-02-28T11:07:20;5.70;;;4.57;;
52047;SDS011;46904;49.438;8.752;2023-02-28T11:10:16;6.40;;;5.07;;
52047;SDS011;46904;49.438;8.752;2023-02-28T11:13:19;5.25;;;4.53;;
52047;SDS011;46904;49.438;8.752;2023-02-28T11:16:13;6.05;;;4.72;;
52047;SDS011;46904;49.438;8.752;2023-02-28T11:19:15;6.47;;;4.70;;
52047;SDS011;46904;49.438;8.752;2023-02-28T11:22:08;5.53;;;4.05;;
52047;SDS011;46904;49.438;8.752;2023-02-28T11:25:03;5.93;;;4.70;;
52047;SDS011;46904;49.438;8.752;2023-02-28T11:28:08;5.53;;;4.60;;
52047;SDS011;46904;49.438;8.752;2023-02-28T11:34:10;5.13;;;4.63;;
52047;SDS011;46904;49.438;8.752;2023-02-28T11:37:15;5.90;;;4.88;;
52047;SDS011;46904;49.438;8.752;2023-02-28T11:40:13;5.38;;;4.72;;
52047;SDS011;46904;49.438;8.752;2023-02-28T11:58:16;6.22;;;4.55;;
52047;SDS011;46904;49.438;8.752;2023-02-28T12:04:42;4.53;;;4.13;;
52047;SDS011;46904;49.438;8.752;2023-02-28T12:10:28;5.88;;;4.53;;
52047;SDS011;46904;49.438;8.752;2023-02-28T12:13:25;4.97;;;4.45;;
52047;SDS011;46904;49.438;8.752;2023-02-28T12:16:25;5.20;;;4.63;;
52047;SDS011;46904;49.438;8.752;2023-02-28T12:19:20;5.53;;;4.78;;
52047;SDS011;46904;49.438;8.752;2023-02-28T12:22:15;6.53;;;5.53;;
52047;SDS011;46904;49.438;8.752;2023-02-28T12:25:17;4.90;;;4.45;;
52047;SDS011;46904;49.438;8.752;2023-02-28T12:31:28;5.70;;;4.78;;
52047;SDS011;46904;49.438;8.752;2023-02-28T12:34:25;5.55;;;4.85;;
52047;SDS011;46904;49.438;8.752;2023-02-28T12:37:28;4.78;;;4.38;;
52047;SDS011;46904;49.438;8.752;2023-02-28T12:40:20;6.18;;;5.07;;
52047;SDS011;46904;49.438;8.752;2023-02-28T12:43:14;6.07;;;5.47;;
52047;SDS011;46904;49.438;8.752;2023-02-28T12:46:27;5.45;;;4.95;;
52047;SDS011;46904;49.438;8.752;2023-02-28T12:52:23;5.85;;;4.60;;
52047;SDS011;46904;49.438;8.752;2023-02-28T12:55:25;6.50;;;5.25;;
52047;SDS011;46904;49.438;8.752;2023-02-28T13:10:12;5.05;;;4.55;;
52047;SDS011;46904;49.438;8.752;2023-02-28T13:13:16;6.72;;;4.95;;
52047;SDS011;46904;49.438;8.752;2023-02-28T13:16:08;5.45;;;4.95;;
52047;SDS011;46904;49.438;8.752;2023-02-28T13:19:10;5.22;;;4.68;;
52047;SDS011;46904;49.438;8.752;2023-02-28T13:22:18;5.53;;;4.95;;
52047;SDS011;46904;49.438;8.752;2023-02-28T13:28:12;5.50;;;5.00;;
52047;SDS011;46904;49.438;8.752;2023-02-28T13:31:04;6.35;;;5.75;;
52047;SDS011;46904;49.438;8.752;2023-02-28T13:36:46;6.05;;;5.30;;
52047;SDS011;46904;49.438;8.752;2023-02-28T13:42:34;5.57;;;5.05;;
52047;SDS011;46904;49.438;8.752;2023-02-28T13:45:27;5.68;;;4.88;;
52047;SDS011;46904;49.438;8.752;2023-02-28T13:48:18;5.13;;;4.63;;
52047;SDS011;46904;49.438;8.752;2023-02-28T14:09:22;6.78;;;5.00;;
52047;SDS011;46904;49.438;8.752;2023-02-28T14:18:32;5.20;;;4.70;;
52047;SDS011;46904;49.438;8.752;2023-02-28T14:21:25;6.53;;;5.30;;
52047;SDS011;46904;49.438;8.752;2023-02-28T14:27:30;5.20;;;4.70;;
52047;SDS011;46904;49.438;8.752;2023-02-28T14:30:43;4.75;;;4.28;;
52047;SDS011;46904;49.438;8.752;2023-02-28T14:36:34;8.10;;;5.03;;
52047;SDS011;46904;49.438;8.752;2023-02-28T14:39:25;5.93;;;5.32;;
52047;SDS011;46904;49.438;8.752;2023-02-28T14:45:21;5.13;;;4.57;;
52047;SDS011;46904;49.438;8.752;2023-02-28T14:48:14;5.68;;;4.90;;
52047;SDS011;46904;49.438;8.752;2023-02-28T14:51:06;5.80;;;4.68;;
52047;SDS011;46904;49.438;8.752;2023-02-28T14:53:57;5.57;;;5.00;;
52047;SDS011;46904;49.438;8.752;2023-02-28T14:56:49;7.38;;;4.82;;
52047;SDS011;46904;49.438;8.752;2023-02-28T14:59:39;5.95;;;4.95;;
52047;SDS011;46904;49.438;8.752;2023-02-28T15:02:33;6.55;;;5.03;;
52047;SDS011;46904;49.438;8.752;2023-02-28T15:08:17;5.43;;;4.90;;
52047;SDS011;46904;49.438;8.752;2023-02-28T15:11:08;5.15;;;4.57;;
52047;SDS011;46904;49.438;8.752;2023-02-28T15:13:59;6.65;;;4.50;;
52047;SDS011;46904;49.438;8.752;2023-02-28T15:16:52;5.15;;;4.65;;
52047;SDS011;46904;49.438;8.752;2023-02-28T15:19:45;6.15;;;5.20;;
52047;SDS011;46904;49.438;8.752;2023-02-28T15:22:39;5.30;;;4.80;;
52047;SDS011;46904;49.438;8.752;2023-02-28T15:25:29;5.38;;;4.85;;
52047;SDS011;46904;49.438;8.752;2023-02-28T15:28:20;6.43;;;5.20;;
52047;SDS011;46904;49.438;8.752;2023-02-28T15:31:19;6.88;;;4.55;;
52047;SDS011;46904;49.438;8.752;2023-02-28T15:34:18;5.03;;;4.53;;
52047;SDS011;46904;49.438;8.752;2023-02-28T15:40:29;9.75;;;4.88;;
52047;SDS011;46904;49.438;8.752;2023-02-28T15:43:24;7.22;;;5.05;;
52047;SDS011;46904;49.438;8.752;2023-02-28T15:46:15;6.50;;;5.13;;
52047;SDS011;46904;49.438;8.752;2023-02-28T15:49:12;7.20;;;5.10;;
52047;SDS011;46904;49.438;8.752;2023-02-28T15:52:09;6.63;;;5.18;;
52047;SDS011;46904;49.438;8.752;2023-02-28T15:58:00;6.28;;;5.03;;
52047;SDS011;46904;49.438;8.752;2023-02-28T16:01:08;6.45;;;5.30;;
52047;SDS011;46904;49.438;8.752;2023-02-28T16:04:06;5.88;;;4.72;;
52047;SDS011;46904;49.438;8.752;2023-02-28T16:07:05;6.05;;;4.38;;
52047;SDS011;46904;49.438;8.752;2023-02-28T16:09:56;5.85;;;4.75;;
52047;SDS011;46904;49.438;8.752;2023-02-28T16:12:47;5.70;;;4.60;;
52047;SDS011;46904;49.438;8.752;2023-02-28T16:15:38;4.95;;;4.22;;
52047;SDS011;46904;49.438;8.752;2023-02-28T16:18:30;5.65;;;4.80;;
52047;SDS011;46904;49.438;8.752;2023-02-28T16:21:21;6.68;;;4.82;;
52047;SDS011;46904;49.438;8.752;2023-02-28T16:24:11;5.30;;;4.45;;
52047;SDS011;46904;49.438;8.752;2023-02-28T16:27:02;6.13;;;4.50;;
52047;SDS011;46904;49.438;8.752;2023-02-28T16:29:53;5.90;;;4.88;;
52047;SDS011;46904;49.438;8.752;2023-02-28T16:32:44;6.07;;;4.70;;
52047;SDS011;46904;49.438;8.752;2023-02-28T16:35:44;6.47;;;5.03;;
52047;SDS011;46904;49.438;8.752;2023-02-28T16:38:35;6.30;;;5.32;;
52047;SDS011;46904;49.438;8.752;2023-02-28T16:41:26;6.68;;;5.07;;
52047;SDS011;46904;49.438;8.752;2023-02-28T16:44:32;5.72;;;5.07;;
52047;SDS011;46904;49.438;8.752;2023-02-28T16:47:24;8.63;;;4.45;;
52047;SDS011;46904;49.438;8.752;2023-02-28T16:50:19;5.45;;;4.60;;
52047;SDS011;46904;49.438;8.752;2023-02-28T16:53:10;6.90;;;4.90;;
52047;SDS011;46904;49.438;8.752;2023-02-28T16:56:03;5.53;;;4.38;;
52047;SDS011;46904;49.438;8.752;2023-02-28T16:58:54;5.80;;;4.72;;
52047;SDS011;46904;49.438;8.752;2023-02-28T17:01:49;5.53;;;4.43;;
52047;SDS011;46904;49.438;8.752;2023-02-28T17:04:40;6.07;;;5.25;;
52047;SDS011;46904;49.438;8.752;2023-02-28T17:07:31;5.65;;;4.28;;
52047;SDS011;46904;49.438;8.752;2023-02-28T17:10:22;6.10;;;4.93;;
52047;SDS011;46904;49.438;8.752;2023-02-28T17:13:13;6.15;;;5.20;;
52047;SDS011;46904;49.438;8.752;2023-02-28T17:16:04;5.15;;;4.22;;
52047;SDS011;46904;49.438;8.752;2023-02-28T17:18:56;9.38;;;5.03;;
52047;SDS011;46904;49.438;8.752;2023-02-28T17:22:02;8.15;;;4.93;;
52047;SDS011;46904;49.438;8.752;2023-02-28T17:24:53;6.72;;;4.93;;
52047;SDS011;46904;49.438;8.752;2023-02-28T17:27:44;6.32;;;4.68;;
52047;SDS011;46904;49.438;8.752;2023-02-28T17:30:38;6.20;;;4.70;;
52047;SDS011;46904;49.438;8.752;2023-02-28T17:33:29;6.13;;;5.00;;
52047;SDS011;46904;49.438;8.752;2023-02-28T17:36:21;6.88;;;5.05;;
52047;SDS011;46904;49.438;8.752;2023-02-28T17:39:12;7.30;;;4.35;;
52047;SDS011;46904;49.438;8.752;2023-02-28T17:42:06;7.97;;;4.95;;
52047;SDS011;46904;49.438;8.752;2023-02-28T17:45:09;7.78;;;5.70;;
52047;SDS011;46904;49.438;8.752;2023-02-28T17:48:00;6.30;;;4.40;;
52047;SDS011;46904;49.438;8.752;2023-02-28T17:50:53;6.68;;;4.60;;
52047;SDS011;46904;49.438;8.752;2023-02-28T17:53:44;6.18;;;4.43;;
52047;SDS011;46904;49.438;8.752;2023-02-28T17:56:37;7.15;;;4.80;;
52047;SDS011;46904;49.438;8.752;2023-02-28T17:59:36;6.47;;;5.32;;
52047;SDS011;46904;49.438;8.752;2023-02-28T18:02:27;8.23;;;5.63;;
52047;SDS011;46904;49.438;8.752;2023-02-28T18:05:18;7.15;;;4.85;;
52047;SDS011;46904;49.438;8.752;2023-02-28T18:08:09;6.85;;;4.70;;
52047;SDS011;46904;49.438;8.752;2023-02-28T18:11:00;6.45;;;4.97;;
52047;SDS011;46904;49.438;8.752;2023-02-28T18:13:52;6.85;;;5.32;;
52047;SDS011;46904;49.438;8.752;2023-02-28T18:16:43;5.20;;;4.50;;
52047;SDS011;46904;49.438;8.752;2023-02-28T18:19:34;6.30;;;5.43;;
52047;SDS011;46904;49.438;8.752;2023-02-28T18:22:25;7.18;;;4.60;;
52047;SDS011;46904;49.438;8.752;2023-02-28T18:25:16;5.78;;;4.68;;
52047;SDS011;46904;49.438;8.752;2023-02-28T18:28:07;5.80;;;4.45;;
52047;SDS011;46904;49.438;8.752;2023-02-28T18:31:05;7.63;;;4.57;;
52047;SDS011;46904;49.438;8.752;2023-02-28T18:33:56;9.15;;;4.82;;
52047;SDS011;46904;49.438;8.752;2023-02-28T18:36:46;6.43;;;4.85;;
52047;SDS011;46904;49.438;8.752;2023-02-28T18:39:37;6.78;;;4.85;;
52047;SDS011;46904;49.438;8.752;2023-02-28T18:42:28;8.07;;;4.72;;
52047;SDS011;46904;49.438;8.752;2023-02-28T18:45:25;6.63;;;4.90;;
52047;SDS011;46904;49.438;8.752;2023-02-28T18:48:16;7.05;;;4.82;;
52047;SDS011;46904;49.438;8.752;2023-02-28T18:57:02;8.52;;;5.05;;
52047;SDS011;46904;49.438;8.752;2023-02-28T18:59:58;8.25;;;4.72;;
52047;SDS011;46904;49.438;8.752;2023-02-28T19:03:09;6.65;;;4.55;;
52047;SDS011;46904;49.438;8.752;2023-02-28T19:06:00;5.88;;;4.38;;
52047;SDS011;46904;49.438;8.752;2023-02-28T19:08:53;7.20;;;4.70;;
52047;SDS011;46904;49.438;8.752;2023-02-28T19:11:44;10.73;;;6.05;;
52047;SDS011;46904;49.438;8.752;2023-02-28T19:14:34;9.10;;;5.32;;
52047;SDS011;46904;49.438;8.752;2023-02-28T19:17:28;7.07;;;4.97;;
52047;SDS011;46904;49.438;8.752;2023-02-28T19:23:13;7.18;;;4.35;;
52047;SDS011;46904;49.438;8.752;2023-02-28T19:26:13;7.40;;;4.88;;
52047;SDS011;46904;49.438;8.752;2023-02-28T19:29:04;7.60;;;4.22;;
52047;SDS011;46904;49.438;8.752;2023-02-28T19:35:04;5.88;;;4.18;;
52047;SDS011;46904;49.438;8.752;2023-02-28T19:37:55;9.63;;;6.28;;
52047;SDS011;46904;49.438;8.752;2023-02-28T19:46:47;6.30;;;4.65;;
52047;SDS011;46904;49.438;8.752;2023-02-28T19:49:37;6.35;;;4.00;;
52047;SDS011;46904;49.438;8.752;2023-02-28T20:02:00;5.50;;;4.13;;
52047;SDS011;46904;49.438;8.752;2023-02-28T20:04:53;6.45;;;5.25;;
52047;SDS011;46904;49.438;8.752;2023-02-28T20:07:44;6.32;;;4.30;;
52047;SDS011;46904;49.438;8.752;2023-02-28T20:10:34;6.82;;;4.85;;
52047;SDS011;46904;49.438;8.752;2023-02-28T20:13:40;6.25;;;4.35;;
52047;SDS011;46904;49.438;8.752;2023-02-28T20:16:31;5.80;;;4.22;;
52047;SDS011;46904;49.438;8.752;2023-02-28T20:19:25;5.95;;;4.43;;
52047;SDS011;46904;49.438;8.752;2023-02-28T20:22:16;6.28;;;4.20;;
52047;SDS011;46904;49.438;8.752;2023-02-28T20:25:27;8.13;;;4.22;;
52047;SDS011;46904;49.438;8.752;2023-02-28T20:28:24;6.03;;;4.30;;
52047;SDS011;46904;49.438;8.752;2023-02-28T20:31:16;6.93;;;4.15;;
52047;SDS011;46904;49.438;8.752;2023-02-28T20:37:24;8.23;;;4.63;;
52047;SDS011;46904;49.438;8.752;2023-02-28T20:43:30;5.78;;;4.65;;
52047;SDS011;46904;49.438;8.752;2023-02-28T20:46:24;6.95;;;5.50;;
52047;SDS011;46904;49.438;8.752;2023-02-28T20:49:15;9.73;;;6.18;;
52047;SDS011;46904;49.438;8.752;2023-02-28T20:52:08;9.43;;;6.80;;
52047;SDS011;46904;49.438;8.752;2023-02-28T20:55:01;8.70;;;5.40;;
52047;SDS011;46904;49.438;8.752;2023-02-28T20:57:51;7.22;;;5.20;;
52047;SDS011;46904;49.438;8.752;2023-02-28T21:00:42;6.20;;;4.43;;
52047;SDS011;46904;49.438;8.752;2023-02-28T21:03:33;6.88;;;4.53;;
52047;SDS011;46904;49.438;8.752;2023-02-28T21:06:26;5.63;;;4.25;;
52047;SDS011;46904;49.438;8.752;2023-02-28T21:09:24;5.97;;;4.00;;
52047;SDS011;46904;49.438;8.752;2023-02-28T21:12:18;5.35;;;4.00;;
52047;SDS011;46904;49.438;8.752;2023-02-28T21:18:27;5.15;;;4.00;;
52047;SDS011;46904;49.438;8.752;2023-02-28T21:21:23;8.57;;;5.05;;
52047;SDS011;46904;49.438;8.752;2023-02-28T21:27:33;8.10;;;4.72;;
52047;SDS011;46904;49.438;8.752;2023-02-28T21:30:26;7.40;;;4.63;;
52047;SDS011;46904;49.438;8.752;2023-02-28T21:36:35;8.23;;;5.18;;
